Online since October of 2007


Bigbaywx more information Bigbaywx


mount mesnard more information Mount Mesnard


visit our other weather sites:

Template documentation
and downloads

And another site


CBI


there are no active watches, warnings or advisories

nearby metar reports

   
KSAW - Sawyer, Michigan
updated: Mar 1 2021 11:38 pm
clear  
clear  
   wind: ssw 4.6 mph
wind: ssw 4.6 mph
temperature: 1.4°F
wind chill: -7.6°F
dew point: -4°F
humidity: 78%
barometer: 30.25 inHg
clouds: clear
visibility: 10 mi
cloud details: clear
KSAW 020438Z AUTO 21004KT 10SM CLR M17/M20 A3025 RMK AO2 T11711201
KESC - Escanaba, Michigan
updated: Mar 1 2021 10:56 pm
clear  
clear  
   wind: wnw 3.5 mph
wind: wnw 3.5 mph
temperature: 5°F
wind chill: -2.2°F
dew point: -0.4°F
humidity: 78%
barometer: 30.36 inHg
clouds: clear
visibility: 9 mi
cloud details: clear
KESC 020356Z AUTO 29003KT 9SM CLR M15/M18 A3036 RMK AO2 SLP299 T11501178 FZRANO
KIMT - Iron Mountain, MI
updated: Mar 1 2021 10:54 pm
clear  
clear  
   wind: calm
wind: calm
temperature: 5°F
dew point: -5.8°F
humidity: 60%
barometer: 30.27 inHg
clouds: clear
visibility: 10 mi
cloud details: clear
KIMT 020354Z AUTO 00000KT 10SM CLR M15/M21 A3027 RMK AO2 SLP280 T11501206
KGRB - Green Bay, WI
updated: Mar 1 2021 10:53 pm
clear  
clear  
   wind: wsw 5.8 mph
wind: wsw 5.8 mph
temperature: 19.4°F
wind chill: 10.4°F
dew point: 5°F
humidity: 53%
barometer: 30.36 inHg
clouds: clear
visibility: 10 mi
cloud details: clear
KGRB 020353Z 25005KT 10SM CLR M07/M15 A3036 RMK AO2 SLP296 T10671150
KDET - Detroit, MI
updated: Mar 1 2021 10:53 pm
clear  
clear  
   wind: north 6.9 mph
wind: north 6.9 mph
temperature: 23°F
wind chill: 15.8°F
dew point: 6.8°F
humidity: 50%
barometer: 30.35 inHg
clouds: clear
visibility: 10 mi
cloud details: clear
KDET 020353Z 35006KT 10SM CLR M05/M14 A3035 RMK AO2 SLP284 T10501144
 

script developed by  Saratoga-weather.org adapted for the template by  Weerstation Leuven

you find our weather info also at:

Weather Underground

midwestern weather network

WeatherlinkIP

Citizen Weather Observer Program (CWOP)

equipment we use:

weather-station
Davis VP2

weather-program
Davis Weatherlink.Com

Davis VP2

Davis Weatherlink.Com